createdAt,value
2022-12-25T00:00:20.957Z,5.20
2022-12-25T00:02:49.533Z,5.00
2022-12-25T00:05:17.750Z,4.73
2022-12-25T00:07:46.965Z,5.37
2022-12-25T00:10:14.854Z,5.10
2022-12-25T00:12:42.884Z,4.77
2022-12-25T00:15:11.861Z,5.27
2022-12-25T00:17:39.709Z,4.77
2022-12-25T00:20:09.883Z,5.90
2022-12-25T00:22:37.893Z,6.17
2022-12-25T00:25:08.637Z,4.60
2022-12-25T00:27:37.674Z,4.97
2022-12-25T00:30:07.710Z,5.23
2022-12-25T00:32:37.320Z,4.90
2022-12-25T00:35:06.176Z,4.70
2022-12-25T00:37:34.053Z,4.80
2022-12-25T00:40:01.990Z,4.73
2022-12-25T00:42:30.226Z,5.17
2022-12-25T00:44:58.146Z,5.27
2022-12-25T00:47:26.345Z,5.13
2022-12-25T00:49:54.223Z,4.73
2022-12-25T00:52:22.099Z,5.57
2022-12-25T00:54:50.026Z,5.73
2022-12-25T00:57:18.044Z,5.77
2022-12-25T00:59:47.246Z,6.63
2022-12-25T01:02:24.340Z,6.47
2022-12-25T01:04:54.761Z,6.70
2022-12-25T01:07:25.314Z,6.73
2022-12-25T01:10:10.807Z,6.13
2022-12-25T01:12:41.834Z,6.17
2022-12-25T01:15:14.086Z,6.13
2022-12-25T01:17:42.964Z,5.73
2022-12-25T01:20:13.886Z,5.57
2022-12-25T01:22:41.921Z,5.97
2022-12-25T01:25:11.584Z,6.13
2022-12-25T01:27:39.723Z,6.83
2022-12-25T01:30:09.536Z,10.40
2022-12-25T01:32:38.750Z,17.93
2022-12-25T01:35:07.789Z,11.33
2022-12-25T01:37:35.953Z,10.23
2022-12-25T01:40:04.145Z,12.20
2022-12-25T01:42:32.029Z,10.90
2022-12-25T01:45:34.738Z,6.80
2022-12-25T01:48:10.717Z,4.50
2022-12-25T01:50:43.998Z,4.27
2022-12-25T01:53:12.853Z,5.20
2022-12-25T01:55:45.386Z,6.03
2022-12-25T01:58:13.708Z,5.50
2022-12-25T02:00:41.708Z,5.37
2022-12-25T02:03:11.072Z,7.57
2022-12-25T02:05:40.299Z,11.30
2022-12-25T02:08:13.546Z,14.23
2022-12-25T02:10:45.576Z,25.17
2022-12-25T02:13:17.231Z,33.57
2022-12-25T02:15:58.033Z,19.50
2022-12-25T02:18:38.693Z,14.83
2022-12-25T02:21:53.767Z,9.40
2022-12-25T02:24:48.281Z,5.77
2022-12-25T02:27:33.096Z,5.30
2022-12-25T02:30:06.961Z,6.13
2022-12-25T02:32:46.329Z,5.27
2022-12-25T02:35:22.163Z,5.80
2022-12-25T02:38:02.513Z,5.33
2022-12-25T02:40:35.150Z,6.23
2022-12-25T02:43:22.015Z,5.03
2022-12-25T02:46:15.441Z,5.83
2022-12-25T02:49:21.547Z,4.93
2022-12-25T02:52:14.069Z,5.00
2022-12-25T02:55:09.154Z,5.33
2022-12-25T02:58:00.225Z,5.90
2022-12-25T03:00:45.735Z,6.00
2022-12-25T03:03:35.040Z,4.87
2022-12-25T03:06:22.791Z,4.97
2022-12-25T03:09:16.576Z,6.93
2022-12-25T03:11:47.388Z,5.03
2022-12-25T03:14:47.872Z,5.97
2022-12-25T03:17:16.611Z,5.97
2022-12-25T03:20:03.591Z,6.03
2022-12-25T03:22:51.234Z,5.40
2022-12-25T03:25:38.290Z,5.20
2022-12-25T03:28:07.750Z,5.30
2022-12-25T03:31:09.854Z,5.20
2022-12-25T03:34:11.895Z,4.47
2022-12-25T03:37:03.877Z,4.30
2022-12-25T03:40:08.380Z,5.47
2022-12-25T03:43:02.821Z,5.10
2022-12-25T03:46:00.612Z,6.17
2022-12-25T03:48:51.444Z,5.40
2022-12-25T03:51:44.553Z,4.53
2022-12-25T03:54:38.015Z,4.13
2022-12-25T03:57:24.451Z,3.90
2022-12-25T04:00:09.979Z,3.73
2022-12-25T04:02:56.649Z,4.40
2022-12-25T04:05:41.922Z,3.93
2022-12-25T04:08:27.379Z,5.30
2022-12-25T04:11:13.914Z,3.70
2022-12-25T04:14:01.647Z,5.63
2022-12-25T04:16:47.068Z,4.37
2022-12-25T04:19:32.594Z,3.40
2022-12-25T04:22:18.059Z,3.70
2022-12-25T04:25:03.648Z,3.80
2022-12-25T04:27:50.824Z,3.67
2022-12-25T04:30:36.426Z,3.43
2022-12-25T04:33:21.860Z,4.20
2022-12-25T04:36:07.959Z,3.10
2022-12-25T04:38:36.583Z,3.57
2022-12-25T04:41:04.885Z,3.57
2022-12-25T04:43:34.158Z,3.70
2022-12-25T04:46:03.307Z,3.63
2022-12-25T04:48:35.926Z,3.50
2022-12-25T04:51:16.658Z,3.70
2022-12-25T04:53:46.351Z,4.17
2022-12-25T04:56:15.586Z,3.90
2022-12-25T04:58:45.982Z,3.50
2022-12-25T05:01:15.332Z,3.33
2022-12-25T05:03:43.571Z,3.87
2022-12-25T05:06:11.604Z,4.53
2022-12-25T05:08:39.604Z,3.57
2022-12-25T05:11:10.089Z,4.07
2022-12-25T05:13:39.011Z,4.23
2022-12-25T05:16:11.002Z,3.90
2022-12-25T05:18:39.152Z,3.47
2022-12-25T05:21:08.340Z,3.63
2022-12-25T05:23:36.476Z,4.00
2022-12-25T05:26:06.996Z,4.40
2022-12-25T05:28:35.444Z,3.10
2022-12-25T05:31:03.958Z,3.80
2022-12-25T05:33:33.805Z,4.47
2022-12-25T05:36:03.942Z,4.13
2022-12-25T05:38:32.176Z,3.80
2022-12-25T05:41:03.504Z,3.33
2022-12-25T05:43:31.789Z,3.80
2022-12-25T05:46:05.734Z,4.10
2022-12-25T05:48:36.687Z,3.57
2022-12-25T05:51:06.906Z,4.43
2022-12-25T05:53:35.592Z,4.13
2022-12-25T05:56:05.761Z,5.07
2022-12-25T05:58:36.229Z,4.43
2022-12-25T06:01:04.686Z,4.17
2022-12-25T06:03:34.094Z,3.87
2022-12-25T06:06:04.208Z,4.70
2022-12-25T06:08:32.070Z,4.20
2022-12-25T06:10:59.923Z,3.63
2022-12-25T06:13:27.781Z,4.33
2022-12-25T06:15:55.671Z,4.30
2022-12-25T06:18:23.603Z,4.00
2022-12-25T06:20:53.046Z,4.13
2022-12-25T06:23:20.974Z,4.40
2022-12-25T06:25:48.882Z,4.63
2022-12-25T06:28:16.745Z,4.87
2022-12-25T06:30:44.896Z,6.13
2022-12-25T06:33:12.820Z,5.40
2022-12-25T06:35:41.085Z,5.50
2022-12-25T06:38:10.300Z,5.97
2022-12-25T06:40:38.483Z,5.53
2022-12-25T06:43:06.358Z,5.10
2022-12-25T06:45:36.265Z,6.33
2022-12-25T06:48:04.896Z,5.67
2022-12-25T06:50:32.768Z,5.73
2022-12-25T06:53:00.646Z,4.97
2022-12-25T06:55:29.819Z,5.23
2022-12-25T06:57:57.735Z,4.63
2022-12-25T07:00:25.604Z,4.73
2022-12-25T07:02:53.674Z,4.90
2022-12-25T07:05:21.648Z,5.20
2022-12-25T07:07:49.496Z,5.20
2022-12-25T07:10:17.608Z,4.90
2022-12-25T07:12:46.849Z,5.20
2022-12-25T07:15:14.821Z,5.17
2022-12-25T07:17:43.541Z,5.43
2022-12-25T07:20:11.774Z,5.30
2022-12-25T07:22:39.600Z,5.07
2022-12-25T07:25:08.634Z,4.70
2022-12-25T07:27:36.511Z,5.10
2022-12-25T07:30:07.628Z,4.63
2022-12-25T07:32:35.890Z,5.00
2022-12-25T07:35:03.784Z,4.27
2022-12-25T07:37:31.637Z,4.03
2022-12-25T07:39:59.512Z,5.30
2022-12-25T07:42:27.406Z,4.23
2022-12-25T07:44:55.639Z,4.83
2022-12-25T07:47:24.924Z,4.53
2022-12-25T07:49:52.776Z,4.27
2022-12-25T07:52:20.620Z,4.03
2022-12-25T07:54:48.495Z,3.80
2022-12-25T07:57:16.356Z,4.70
2022-12-25T07:59:44.522Z,4.20
2022-12-25T08:02:13.166Z,4.33
2022-12-25T08:04:43.189Z,4.10
2022-12-25T08:07:11.019Z,3.90
2022-12-25T08:09:38.864Z,4.80
2022-12-25T08:12:07.394Z,4.03
2022-12-25T08:14:35.269Z,4.03
2022-12-25T08:17:03.229Z,3.67
2022-12-25T08:19:31.510Z,4.00
2022-12-25T08:22:03.470Z,4.40
2022-12-25T08:24:31.644Z,3.60
2022-12-25T08:26:59.483Z,3.93
2022-12-25T08:29:28.905Z,4.00
2022-12-25T08:31:57.088Z,3.87
2022-12-25T08:34:25.046Z,3.33
2022-12-25T08:36:53.043Z,3.37
2022-12-25T08:39:22.263Z,3.20
2022-12-25T08:41:50.107Z,3.40
2022-12-25T08:44:18.042Z,4.13
2022-12-25T08:46:46.254Z,3.70
2022-12-25T08:49:14.128Z,3.83
2022-12-25T08:51:42.030Z,3.50
2022-12-25T08:54:10.231Z,3.40
2022-12-25T08:56:39.403Z,4.67
2022-12-25T08:59:07.376Z,4.17
2022-12-25T09:01:35.365Z,3.80
2022-12-25T09:04:03.426Z,4.03
2022-12-25T09:06:31.640Z,4.33
2022-12-25T09:08:59.556Z,3.60
2022-12-25T09:11:27.417Z,4.43
2022-12-25T09:13:56.628Z,4.07
2022-12-25T09:16:24.754Z,4.23
2022-12-25T09:18:53.181Z,4.13
2022-12-25T09:21:21.357Z,4.80
2022-12-25T09:23:49.402Z,4.00
2022-12-25T09:26:19.455Z,3.30
2022-12-25T09:28:51.918Z,3.93
2022-12-25T09:31:23.824Z,3.87
2022-12-25T09:33:52.241Z,3.73
2022-12-25T09:36:21.283Z,3.33
2022-12-25T09:38:49.213Z,3.57
2022-12-25T09:41:23.905Z,3.80
2022-12-25T09:43:58.673Z,3.43
2022-12-25T09:46:37.779Z,3.63
2022-12-25T09:49:16.260Z,4.17
2022-12-25T09:51:49.482Z,4.20
2022-12-25T09:54:23.525Z,3.77
2022-12-25T09:56:51.682Z,3.97
2022-12-25T09:59:27.716Z,3.60
2022-12-25T10:02:25.408Z,3.70
2022-12-25T10:05:14.048Z,3.93
2022-12-25T10:07:52.641Z,4.00
2022-12-25T10:10:45.606Z,3.77
2022-12-25T10:13:37.851Z,4.10
2022-12-25T10:16:25.146Z,3.90
2022-12-25T10:19:11.453Z,4.33
2022-12-25T10:21:39.704Z,4.40
2022-12-25T10:24:25.628Z,3.43
2022-12-25T10:26:57.349Z,3.37
2022-12-25T10:29:25.226Z,2.93
2022-12-25T10:31:56.702Z,2.90
2022-12-25T10:34:27.682Z,3.23
2022-12-25T10:36:56.006Z,2.90
2022-12-25T10:39:26.716Z,2.90
2022-12-25T10:42:34.413Z,3.77
2022-12-25T10:45:06.148Z,3.30
2022-12-25T10:47:38.244Z,2.50
2022-12-25T10:50:19.896Z,2.83
2022-12-25T10:52:57.004Z,3.87
2022-12-25T10:55:28.863Z,4.03
2022-12-25T10:57:58.570Z,3.67
2022-12-25T11:00:30.114Z,4.17
2022-12-25T11:02:58.940Z,3.00
2022-12-25T11:05:32.584Z,2.37
2022-12-25T11:08:03.394Z,2.63
2022-12-25T11:10:35.965Z,2.50
2022-12-25T11:13:07.535Z,2.50
2022-12-25T11:15:39.990Z,3.57
2022-12-25T11:18:21.919Z,2.90
2022-12-25T11:20:53.243Z,2.30
2022-12-25T11:23:25.094Z,3.00
2022-12-25T11:25:58.193Z,2.80
2022-12-25T11:28:27.584Z,3.00
2022-12-25T11:31:03.968Z,3.00
2022-12-25T11:33:38.287Z,2.67
2022-12-25T11:36:20.870Z,3.40
2022-12-25T11:38:48.913Z,2.60
2022-12-25T11:41:23.251Z,2.60
2022-12-25T11:43:59.273Z,2.00
2022-12-25T11:46:34.547Z,1.90
2022-12-25T11:49:08.339Z,2.03
2022-12-25T11:51:42.963Z,1.77
2022-12-25T11:54:23.959Z,2.17
2022-12-25T11:56:52.786Z,2.30
2022-12-25T11:59:28.540Z,2.50
2022-12-25T12:02:01.089Z,2.40
2022-12-25T12:04:42.070Z,2.40
2022-12-25T12:07:22.672Z,3.03
2022-12-25T12:10:03.825Z,3.07
2022-12-25T12:12:49.009Z,3.00
2022-12-25T12:15:29.500Z,2.87
2022-12-25T12:18:09.520Z,3.13
2022-12-25T12:20:38.611Z,2.50
2022-12-25T12:23:17.857Z,2.67
2022-12-25T12:25:46.445Z,3.40
2022-12-25T12:28:23.362Z,3.93
2022-12-25T12:31:03.854Z,4.00
2022-12-25T12:33:38.904Z,3.40
2022-12-25T12:36:11.883Z,3.83
2022-12-25T12:38:43.533Z,3.03
2022-12-25T12:41:14.840Z,3.30
2022-12-25T12:43:48.406Z,4.03
2022-12-25T12:46:26.123Z,3.13
2022-12-25T12:49:12.375Z,3.37
2022-12-25T12:51:40.305Z,3.50
2022-12-25T12:54:21.780Z,3.97
2022-12-25T12:57:05.358Z,3.87
2022-12-25T12:59:43.410Z,3.70
2022-12-25T13:02:57.511Z,2.73
2022-12-25T13:05:38.334Z,3.33
2022-12-25T13:08:28.599Z,3.50
2022-12-25T13:11:14.437Z,4.10
2022-12-25T13:13:46.016Z,3.10
2022-12-25T13:16:25.913Z,2.87
2022-12-25T13:18:58.142Z,2.97
2022-12-25T13:21:34.020Z,2.97
2022-12-25T13:24:07.222Z,2.33
2022-12-25T13:26:36.443Z,2.83
2022-12-25T13:29:09.633Z,2.60
2022-12-25T13:31:42.309Z,3.03
2022-12-25T13:34:24.481Z,3.00
2022-12-25T13:36:52.450Z,3.30
2022-12-25T13:39:21.173Z,3.17
2022-12-25T13:42:10.267Z,4.00
2022-12-25T13:44:48.916Z,3.10
2022-12-25T13:47:23.932Z,2.40
2022-12-25T13:49:55.063Z,2.70
2022-12-25T13:52:29.600Z,2.80
2022-12-25T13:55:01.471Z,2.70
2022-12-25T13:57:36.950Z,3.00
2022-12-25T14:00:17.051Z,2.50
2022-12-25T14:02:47.296Z,2.30
2022-12-25T14:05:43.111Z,2.73
2022-12-25T14:08:17.058Z,2.13
2022-12-25T14:10:50.161Z,2.53
2022-12-25T14:13:25.023Z,2.40
2022-12-25T14:15:54.173Z,2.40
2022-12-25T14:18:25.153Z,1.80
2022-12-25T14:21:02.373Z,2.10
2022-12-25T14:23:42.632Z,1.80
2022-12-25T14:26:17.538Z,2.07
2022-12-25T14:28:52.320Z,2.30
2022-12-25T14:31:22.280Z,2.97
2022-12-25T14:33:52.069Z,2.50
2022-12-25T14:36:20.480Z,2.10
2022-12-25T14:38:59.039Z,2.30
2022-12-25T14:41:37.748Z,2.77
2022-12-25T14:44:32.087Z,2.63
2022-12-25T14:47:16.351Z,2.20
2022-12-25T14:49:45.230Z,1.70
2022-12-25T14:52:22.289Z,2.17
2022-12-25T14:54:55.742Z,2.63
2022-12-25T14:57:32.053Z,4.00
2022-12-25T15:00:08.027Z,3.17
2022-12-25T15:02:45.996Z,2.60
2022-12-25T15:05:31.965Z,2.17
2022-12-25T15:08:17.448Z,2.03
2022-12-25T15:11:02.688Z,2.77
2022-12-25T15:13:32.300Z,3.30
2022-12-25T15:16:10.213Z,2.77
2022-12-25T15:18:44.327Z,3.50
2022-12-25T15:21:19.423Z,2.80
2022-12-25T15:23:47.924Z,2.77
2022-12-25T15:26:16.647Z,2.40
2022-12-25T15:28:44.686Z,2.47
2022-12-25T15:31:22.970Z,2.87
2022-12-25T15:33:51.719Z,2.90
2022-12-25T15:36:20.024Z,2.57
2022-12-25T15:38:48.334Z,2.80
2022-12-25T15:41:35.000Z,3.00
2022-12-25T15:44:04.426Z,2.83
2022-12-25T15:46:34.904Z,3.00
2022-12-25T15:49:02.878Z,2.80
2022-12-25T15:51:30.952Z,3.33
2022-12-25T15:53:59.638Z,3.53
2022-12-25T15:56:28.549Z,3.20
2022-12-25T15:58:56.483Z,3.50
2022-12-25T16:01:24.425Z,3.00
2022-12-25T16:03:53.898Z,3.33
2022-12-25T16:06:21.802Z,3.40
2022-12-25T16:08:49.688Z,3.43
2022-12-25T16:11:17.558Z,3.43
2022-12-25T16:13:45.483Z,3.43
2022-12-25T16:16:13.780Z,3.93
2022-12-25T16:18:47.405Z,3.77
2022-12-25T16:21:21.597Z,4.27
2022-12-25T16:23:49.839Z,3.47
2022-12-25T16:26:18.022Z,3.90
2022-12-25T16:28:46.344Z,5.20
2022-12-25T16:31:14.260Z,5.53
2022-12-25T16:33:42.151Z,3.97
2022-12-25T16:36:10.317Z,4.63
2022-12-25T16:38:39.654Z,4.27
2022-12-25T16:41:09.178Z,4.40
2022-12-25T16:43:37.085Z,6.00
2022-12-25T16:46:11.038Z,5.43
2022-12-25T16:48:39.003Z,7.07
2022-12-25T16:51:10.967Z,7.30
2022-12-25T16:53:40.888Z,6.50
2022-12-25T16:56:10.670Z,5.63
2022-12-25T16:58:38.885Z,4.57
2022-12-25T17:01:08.970Z,6.20
2022-12-25T17:03:37.250Z,5.33
2022-12-25T17:06:13.333Z,5.03
2022-12-25T17:08:42.959Z,5.77
2022-12-25T17:11:11.779Z,8.33
2022-12-25T17:13:39.798Z,8.63
2022-12-25T17:16:24.805Z,5.93
2022-12-25T17:18:55.775Z,4.63
2022-12-25T17:21:23.921Z,6.37
2022-12-25T17:23:56.614Z,6.80
2022-12-25T17:26:29.559Z,6.93
2022-12-25T17:28:58.113Z,5.90
2022-12-25T17:31:26.076Z,4.60
2022-12-25T17:33:53.975Z,5.47
2022-12-25T17:36:23.230Z,4.90
2022-12-25T17:38:51.116Z,6.30
2022-12-25T17:41:21.307Z,7.00
2022-12-25T17:43:49.777Z,7.47
2022-12-25T17:46:20.748Z,5.60
2022-12-25T17:48:50.351Z,4.50
2022-12-25T17:51:23.621Z,4.97
2022-12-25T17:53:55.255Z,5.63
2022-12-25T17:56:25.931Z,3.70
2022-12-25T17:58:55.983Z,3.67
2022-12-25T18:01:25.946Z,3.67
2022-12-25T18:03:54.679Z,3.63
2022-12-25T18:06:25.857Z,4.03
2022-12-25T18:08:56.223Z,3.87
2022-12-25T18:11:32.580Z,3.70
2022-12-25T18:14:03.992Z,4.57
2022-12-25T18:16:36.229Z,5.90
2022-12-25T18:19:04.734Z,5.23
2022-12-25T18:21:33.287Z,4.97
2022-12-25T18:24:04.076Z,4.23
2022-12-25T18:26:34.157Z,4.57
2022-12-25T18:29:02.215Z,3.80
2022-12-25T18:31:31.064Z,4.60
2022-12-25T18:34:00.157Z,5.40
2022-12-25T18:36:30.359Z,4.67
2022-12-25T18:39:00.183Z,4.73
2022-12-25T18:41:30.189Z,4.47
2022-12-25T18:44:00.897Z,3.90
2022-12-25T18:46:29.491Z,3.83
2022-12-25T18:49:00.339Z,3.70
2022-12-25T18:51:34.918Z,3.90
2022-12-25T18:54:04.981Z,3.90
2022-12-25T18:56:33.329Z,4.87
2022-12-25T18:59:03.140Z,4.43
2022-12-25T19:01:31.144Z,4.13
2022-12-25T19:04:04.329Z,4.13
2022-12-25T19:06:33.371Z,4.03
2022-12-25T19:09:09.245Z,4.37
2022-12-25T19:11:44.003Z,4.63
2022-12-25T19:14:16.174Z,4.30
2022-12-25T19:16:44.916Z,5.10
2022-12-25T19:19:13.224Z,5.10
2022-12-25T19:21:41.481Z,4.67
2022-12-25T19:24:09.743Z,4.40
2022-12-25T19:26:37.683Z,4.60
2022-12-25T19:29:05.817Z,4.57
2022-12-25T19:31:37.071Z,4.50
2022-12-25T19:34:06.587Z,4.90
2022-12-25T19:36:34.820Z,4.10
2022-12-25T19:39:03.102Z,3.90
2022-12-25T19:41:31.259Z,4.27
2022-12-25T19:43:59.221Z,3.77
2022-12-25T19:46:30.548Z,4.17
2022-12-25T19:49:04.027Z,4.70
2022-12-25T19:51:34.952Z,4.40
2022-12-25T19:54:03.892Z,4.40
2022-12-25T19:56:32.048Z,4.23
2022-12-25T19:59:01.135Z,4.43
2022-12-25T20:01:30.443Z,4.47
2022-12-25T20:04:00.460Z,4.20
2022-12-25T20:06:32.198Z,4.10
2022-12-25T20:09:04.868Z,4.00
2022-12-25T20:11:35.047Z,4.30
2022-12-25T20:14:03.421Z,5.43
2022-12-25T20:16:31.384Z,4.37
2022-12-25T20:19:00.818Z,4.47
2022-12-25T20:21:29.795Z,3.60
2022-12-25T20:23:58.504Z,3.90
2022-12-25T20:26:30.645Z,4.40
2022-12-25T20:28:59.416Z,4.03
2022-12-25T20:31:31.328Z,4.30
2022-12-25T20:34:06.597Z,4.83
2022-12-25T20:36:37.782Z,4.03
2022-12-25T20:39:09.513Z,4.67
2022-12-25T20:41:41.284Z,4.47
2022-12-25T20:44:10.629Z,4.30
2022-12-25T20:46:38.548Z,4.30
2022-12-25T20:49:08.206Z,3.97
2022-12-25T20:51:36.173Z,4.07
2022-12-25T20:54:08.526Z,3.63
2022-12-25T20:56:37.508Z,4.00
2022-12-25T20:59:05.498Z,3.50
2022-12-25T21:01:33.582Z,3.93
2022-12-25T21:04:01.666Z,4.37
2022-12-25T21:06:30.898Z,5.20
2022-12-25T21:08:58.912Z,4.40
2022-12-25T21:11:31.244Z,4.93
2022-12-25T21:13:59.581Z,4.90
2022-12-25T21:16:28.368Z,3.60
2022-12-25T21:18:56.325Z,4.60
2022-12-25T21:21:24.291Z,5.30
2022-12-25T21:23:56.791Z,4.53
2022-12-25T21:26:28.247Z,4.30
2022-12-25T21:29:00.320Z,4.10
2022-12-25T21:31:29.634Z,3.60
2022-12-25T21:33:57.714Z,3.63
2022-12-25T21:36:29.175Z,4.40
2022-12-25T21:39:02.051Z,3.80
2022-12-25T21:41:32.049Z,3.60
2022-12-25T21:44:00.910Z,3.87
2022-12-25T21:46:30.066Z,4.00
2022-12-25T21:48:59.296Z,3.73
2022-12-25T21:51:47.978Z,3.80
2022-12-25T21:54:18.578Z,3.53
2022-12-25T21:56:48.839Z,3.30
2022-12-25T21:59:19.313Z,4.03
2022-12-25T22:01:48.644Z,3.90
2022-12-25T22:04:19.221Z,3.93
2022-12-25T22:07:05.994Z,4.23
2022-12-25T22:09:35.288Z,3.13
2022-12-25T22:12:21.568Z,5.33
2022-12-25T22:14:55.429Z,3.50
2022-12-25T22:17:45.059Z,3.73
2022-12-25T22:20:16.891Z,3.37
2022-12-25T22:22:45.490Z,4.10
2022-12-25T22:25:15.683Z,4.33
2022-12-25T22:27:45.716Z,3.97
2022-12-25T22:30:16.673Z,3.53
2022-12-25T22:32:46.274Z,3.63
2022-12-25T22:35:15.013Z,3.40
2022-12-25T22:37:44.411Z,3.50
2022-12-25T22:40:17.043Z,4.57
2022-12-25T22:42:45.033Z,3.20
2022-12-25T22:45:13.600Z,3.50
2022-12-25T22:47:42.273Z,4.70
2022-12-25T22:50:12.905Z,4.07
2022-12-25T22:52:41.464Z,3.27
2022-12-25T22:55:11.197Z,3.90
2022-12-25T22:57:40.441Z,3.00
2022-12-25T23:00:10.492Z,3.20
2022-12-25T23:02:38.613Z,3.50
2022-12-25T23:05:08.099Z,3.30
2022-12-25T23:07:36.059Z,3.33
2022-12-25T23:10:04.412Z,3.30
2022-12-25T23:12:49.841Z,3.00
2022-12-25T23:15:19.531Z,3.37
2022-12-25T23:18:05.033Z,2.43
2022-12-25T23:20:51.064Z,3.03
2022-12-25T23:23:36.833Z,3.10
2022-12-25T23:26:11.039Z,3.03
2022-12-25T23:29:00.158Z,3.10
2022-12-25T23:31:35.262Z,2.83
2022-12-25T23:34:04.765Z,2.83
2022-12-25T23:36:32.730Z,3.03
2022-12-25T23:39:08.619Z,2.87
2022-12-25T23:41:38.793Z,3.30
2022-12-25T23:44:06.944Z,3.30
2022-12-25T23:46:36.801Z,3.17
2022-12-25T23:49:05.676Z,2.77
2022-12-25T23:51:35.268Z,3.60
2022-12-25T23:54:03.331Z,2.73
2022-12-25T23:56:31.204Z,2.73
2022-12-25T23:58:59.086Z,3.10
